sensor_id;sensor_type;location;lat;lon;timestamp;temperature;humidity
21019;DHT22;10667;51.056;3.732;2023-11-21T00:00:47;11.20;99.90
21019;DHT22;10667;51.056;3.732;2023-11-21T00:03:12;11.20;99.90
21019;DHT22;10667;51.056;3.732;2023-11-21T00:05:40;11.20;99.90
21019;DHT22;10667;51.056;3.732;2023-11-21T00:08:08;11.30;99.90
21019;DHT22;10667;51.056;3.732;2023-11-21T00:10:34;11.20;99.90
21019;DHT22;10667;51.056;3.732;2023-11-21T00:13:00;11.20;99.90
21019;DHT22;10667;51.056;3.732;2023-11-21T00:15:28;11.20;99.90
21019;DHT22;10667;51.056;3.732;2023-11-21T00:17:53;11.20;99.90
21019;DHT22;10667;51.056;3.732;2023-11-21T00:20:19;11.20;99.90
21019;DHT22;10667;51.056;3.732;2023-11-21T00:22:45;11.20;99.90
21019;DHT22;10667;51.056;3.732;2023-11-21T00:25:12;11.20;99.90
21019;DHT22;10667;51.056;3.732;2023-11-21T00:27:41;11.20;99.90
21019;DHT22;10667;51.056;3.732;2023-11-21T00:30:07;11.20;99.90
21019;DHT22;10667;51.056;3.732;2023-11-21T00:32:35;11.30;99.90
21019;DHT22;10667;51.056;3.732;2023-11-21T00:35:01;11.20;99.90
21019;DHT22;10667;51.056;3.732;2023-11-21T00:37:27;11.20;99.90
21019;DHT22;10667;51.056;3.732;2023-11-21T00:39:53;11.30;99.90
21019;DHT22;10667;51.056;3.732;2023-11-21T00:42:18;11.30;99.90
21019;DHT22;10667;51.056;3.732;2023-11-21T00:44:44;11.30;99.90
21019;DHT22;10667;51.056;3.732;2023-11-21T00:47:10;11.30;99.90
21019;DHT22;10667;51.056;3.732;2023-11-21T00:49:35;11.20;99.90
21019;DHT22;10667;51.056;3.732;2023-11-21T00:52:01;11.20;99.90
21019;DHT22;10667;51.056;3.732;2023-11-21T00:54:28;11.30;99.90
21019;DHT22;10667;51.056;3.732;2023-11-21T00:56:54;11.30;99.90
21019;DHT22;10667;51.056;3.732;2023-11-21T00:59:19;11.30;99.90
21019;DHT22;10667;51.056;3.732;2023-11-21T01:01:45;11.20;99.90
21019;DHT22;10667;51.056;3.732;2023-11-21T01:04:10;11.30;99.90
21019;DHT22;10667;51.056;3.732;2023-11-21T01:06:36;11.20;99.90
21019;DHT22;10667;51.056;3.732;2023-11-21T01:09:02;11.20;99.90
21019;DHT22;10667;51.056;3.732;2023-11-21T01:11:33;11.20;99.90
21019;DHT22;10667;51.056;3.732;2023-11-21T01:14:01;11.00;99.90
21019;DHT22;10667;51.056;3.732;2023-11-21T01:16:29;11.10;99.90
21019;DHT22;10667;51.056;3.732;2023-11-21T01:18:54;11.10;99.90
21019;DHT22;10667;51.056;3.732;2023-11-21T01:21:20;11.10;99.90
21019;DHT22;10667;51.056;3.732;2023-11-21T01:23:46;11.20;99.90
21019;DHT22;10667;51.056;3.732;2023-11-21T01:26:13;11.20;99.90
21019;DHT22;10667;51.056;3.732;2023-11-21T01:28:38;11.20;99.90
21019;DHT22;10667;51.056;3.732;2023-11-21T01:31:04;11.20;99.90
21019;DHT22;10667;51.056;3.732;2023-11-21T01:33:30;11.20;99.90
21019;DHT22;10667;51.056;3.732;2023-11-21T01:35:55;11.30;99.90
21019;DHT22;10667;51.056;3.732;2023-11-21T01:38:21;11.20;99.90
21019;DHT22;10667;51.056;3.732;2023-11-21T01:40:47;11.20;99.90
21019;DHT22;10667;51.056;3.732;2023-11-21T01:43:13;11.30;99.90
21019;DHT22;10667;51.056;3.732;2023-11-21T01:45:39;11.40;99.90
21019;DHT22;10667;51.056;3.732;2023-11-21T01:48:05;11.40;99.90
21019;DHT22;10667;51.056;3.732;2023-11-21T01:50:33;11.40;99.90
21019;DHT22;10667;51.056;3.732;2023-11-21T01:52:59;11.30;99.90
21019;DHT22;10667;51.056;3.732;2023-11-21T01:55:26;11.30;99.90
21019;DHT22;10667;51.056;3.732;2023-11-21T01:57:52;11.30;99.90
21019;DHT22;10667;51.056;3.732;2023-11-21T02:00:18;11.40;99.90
21019;DHT22;10667;51.056;3.732;2023-11-21T02:02:48;11.30;99.90
21019;DHT22;10667;51.056;3.732;2023-11-21T02:05:18;11.30;99.90
21019;DHT22;10667;51.056;3.732;2023-11-21T02:07:45;11.30;99.90
21019;DHT22;10667;51.056;3.732;2023-11-21T02:10:14;11.30;99.90
21019;DHT22;10667;51.056;3.732;2023-11-21T02:12:41;11.30;99.90
21019;DHT22;10667;51.056;3.732;2023-11-21T02:15:08;11.30;99.90
21019;DHT22;10667;51.056;3.732;2023-11-21T02:17:41;11.30;99.90
21019;DHT22;10667;51.056;3.732;2023-11-21T02:20:10;11.20;99.90
21019;DHT22;10667;51.056;3.732;2023-11-21T02:22:41;11.30;99.90
21019;DHT22;10667;51.056;3.732;2023-11-21T02:25:07;11.30;99.90
21019;DHT22;10667;51.056;3.732;2023-11-21T02:27:33;11.40;99.90
21019;DHT22;10667;51.056;3.732;2023-11-21T02:29:59;11.40;99.90
21019;DHT22;10667;51.056;3.732;2023-11-21T02:32:26;11.40;99.90
21019;DHT22;10667;51.056;3.732;2023-11-21T02:34:52;11.40;99.90
21019;DHT22;10667;51.056;3.732;2023-11-21T02:37:19;11.40;99.90
21019;DHT22;10667;51.056;3.732;2023-11-21T02:39:45;11.40;99.90
21019;DHT22;10667;51.056;3.732;2023-11-21T02:42:11;11.30;99.90
21019;DHT22;10667;51.056;3.732;2023-11-21T02:44:36;11.40;99.90
21019;DHT22;10667;51.056;3.732;2023-11-21T02:47:02;11.40;99.90
21019;DHT22;10667;51.056;3.732;2023-11-21T02:49:28;11.40;99.90
21019;DHT22;10667;51.056;3.732;2023-11-21T02:51:54;11.40;99.90
21019;DHT22;10667;51.056;3.732;2023-11-21T02:54:20;11.50;99.90
21019;DHT22;10667;51.056;3.732;2023-11-21T02:56:48;11.40;99.90
21019;DHT22;10667;51.056;3.732;2023-11-21T02:59:15;11.40;99.90
21019;DHT22;10667;51.056;3.732;2023-11-21T03:01:41;11.30;99.90
21019;DHT22;10667;51.056;3.732;2023-11-21T03:04:07;11.30;99.90
21019;DHT22;10667;51.056;3.732;2023-11-21T03:06:33;11.30;99.90
21019;DHT22;10667;51.056;3.732;2023-11-21T03:08:59;11.30;99.90
21019;DHT22;10667;51.056;3.732;2023-11-21T03:11:25;11.30;99.90
21019;DHT22;10667;51.056;3.732;2023-11-21T03:13:51;11.30;99.90
21019;DHT22;10667;51.056;3.732;2023-11-21T03:16:16;11.30;99.90
21019;DHT22;10667;51.056;3.732;2023-11-21T03:18:42;11.20;99.90
21019;DHT22;10667;51.056;3.732;2023-11-21T03:21:08;11.20;99.90
21019;DHT22;10667;51.056;3.732;2023-11-21T03:23:35;11.30;99.90
21019;DHT22;10667;51.056;3.732;2023-11-21T03:26:01;11.30;99.90
21019;DHT22;10667;51.056;3.732;2023-11-21T03:28:26;11.40;99.90
21019;DHT22;10667;51.056;3.732;2023-11-21T03:30:53;11.30;99.90
21019;DHT22;10667;51.056;3.732;2023-11-21T03:33:19;11.40;99.90
21019;DHT22;10667;51.056;3.732;2023-11-21T03:35:44;11.30;99.90
21019;DHT22;10667;51.056;3.732;2023-11-21T03:38:10;11.20;99.90
21019;DHT22;10667;51.056;3.732;2023-11-21T03:40:36;11.20;99.90
21019;DHT22;10667;51.056;3.732;2023-11-21T03:43:01;11.30;99.90
21019;DHT22;10667;51.056;3.732;2023-11-21T03:45:27;11.30;99.90
21019;DHT22;10667;51.056;3.732;2023-11-21T03:47:53;11.30;99.90
21019;DHT22;10667;51.056;3.732;2023-11-21T03:50:18;11.30;99.90
21019;DHT22;10667;51.056;3.732;2023-11-21T03:52:44;11.30;99.90
21019;DHT22;10667;51.056;3.732;2023-11-21T03:55:09;11.30;99.90
21019;DHT22;10667;51.056;3.732;2023-11-21T03:57:36;11.40;99.90
21019;DHT22;10667;51.056;3.732;2023-11-21T04:00:02;11.30;99.90
21019;DHT22;10667;51.056;3.732;2023-11-21T04:02:29;11.30;99.90
21019;DHT22;10667;51.056;3.732;2023-11-21T04:04:57;11.20;99.90
21019;DHT22;10667;51.056;3.732;2023-11-21T04:07:22;11.30;99.90
21019;DHT22;10667;51.056;3.732;2023-11-21T04:09:48;11.30;99.90
21019;DHT22;10667;51.056;3.732;2023-11-21T04:12:14;11.40;99.90
21019;DHT22;10667;51.056;3.732;2023-11-21T04:14:39;11.40;99.90
21019;DHT22;10667;51.056;3.732;2023-11-21T04:17:05;11.40;99.90
21019;DHT22;10667;51.056;3.732;2023-11-21T04:19:31;11.50;99.90
21019;DHT22;10667;51.056;3.732;2023-11-21T04:21:56;11.50;99.90
21019;DHT22;10667;51.056;3.732;2023-11-21T04:24:22;11.50;99.90
21019;DHT22;10667;51.056;3.732;2023-11-21T04:26:48;11.50;99.90
21019;DHT22;10667;51.056;3.732;2023-11-21T04:29:13;11.50;99.90
21019;DHT22;10667;51.056;3.732;2023-11-21T04:31:39;11.50;99.90
21019;DHT22;10667;51.056;3.732;2023-11-21T04:34:04;11.50;99.90
21019;DHT22;10667;51.056;3.732;2023-11-21T04:36:30;11.60;99.90
21019;DHT22;10667;51.056;3.732;2023-11-21T04:38:56;11.60;99.90
21019;DHT22;10667;51.056;3.732;2023-11-21T04:41:22;11.60;99.90
21019;DHT22;10667;51.056;3.732;2023-11-21T04:43:48;11.50;99.90
21019;DHT22;10667;51.056;3.732;2023-11-21T04:46:14;11.60;99.90
21019;DHT22;10667;51.056;3.732;2023-11-21T04:48:40;11.80;99.90
21019;DHT22;10667;51.056;3.732;2023-11-21T04:51:06;11.80;99.90
21019;DHT22;10667;51.056;3.732;2023-11-21T04:53:32;11.70;99.90
21019;DHT22;10667;51.056;3.732;2023-11-21T04:55:58;11.70;99.90
21019;DHT22;10667;51.056;3.732;2023-11-21T04:58:24;11.70;99.90
21019;DHT22;10667;51.056;3.732;2023-11-21T05:00:49;11.70;99.90
21019;DHT22;10667;51.056;3.732;2023-11-21T05:03:15;11.70;99.90
21019;DHT22;10667;51.056;3.732;2023-11-21T05:05:41;11.70;99.90
21019;DHT22;10667;51.056;3.732;2023-11-21T05:08:06;11.80;99.90
21019;DHT22;10667;51.056;3.732;2023-11-21T05:10:32;11.80;99.90
21019;DHT22;10667;51.056;3.732;2023-11-21T05:12:57;11.90;99.90
21019;DHT22;10667;51.056;3.732;2023-11-21T05:15:24;11.90;99.90
21019;DHT22;10667;51.056;3.732;2023-11-21T05:17:50;11.80;99.90
21019;DHT22;10667;51.056;3.732;2023-11-21T05:20:17;11.80;99.90
21019;DHT22;10667;51.056;3.732;2023-11-21T05:22:46;11.70;99.90
21019;DHT22;10667;51.056;3.732;2023-11-21T05:25:14;11.80;99.90
21019;DHT22;10667;51.056;3.732;2023-11-21T05:27:39;11.80;99.90
21019;DHT22;10667;51.056;3.732;2023-11-21T05:30:07;11.80;99.90
21019;DHT22;10667;51.056;3.732;2023-11-21T05:32:38;11.90;99.90
21019;DHT22;10667;51.056;3.732;2023-11-21T05:35:04;11.80;99.90
21019;DHT22;10667;51.056;3.732;2023-11-21T05:37:35;11.90;99.90
21019;DHT22;10667;51.056;3.732;2023-11-21T05:40:01;11.70;99.90
21019;DHT22;10667;51.056;3.732;2023-11-21T05:42:32;11.60;99.90
21019;DHT22;10667;51.056;3.732;2023-11-21T05:44:57;11.60;99.90
21019;DHT22;10667;51.056;3.732;2023-11-21T05:47:25;11.60;99.90
21019;DHT22;10667;51.056;3.732;2023-11-21T05:49:53;11.60;99.90
21019;DHT22;10667;51.056;3.732;2023-11-21T05:52:18;11.60;99.90
21019;DHT22;10667;51.056;3.732;2023-11-21T05:54:44;11.60;99.90
21019;DHT22;10667;51.056;3.732;2023-11-21T05:57:10;11.70;99.90
21019;DHT22;10667;51.056;3.732;2023-11-21T05:59:35;11.60;99.90
21019;DHT22;10667;51.056;3.732;2023-11-21T06:02:01;11.70;99.90
21019;DHT22;10667;51.056;3.732;2023-11-21T06:04:27;11.70;99.90
21019;DHT22;10667;51.056;3.732;2023-11-21T06:06:53;11.70;99.90
21019;DHT22;10667;51.056;3.732;2023-11-21T06:09:19;11.70;99.90
21019;DHT22;10667;51.056;3.732;2023-11-21T06:11:45;11.50;99.90
21019;DHT22;10667;51.056;3.732;2023-11-21T06:14:10;11.50;99.90
21019;DHT22;10667;51.056;3.732;2023-11-21T06:16:36;11.50;99.90
21019;DHT22;10667;51.056;3.732;2023-11-21T06:19:02;11.40;99.90
21019;DHT22;10667;51.056;3.732;2023-11-21T06:21:27;11.30;99.90
21019;DHT22;10667;51.056;3.732;2023-11-21T06:23:54;11.20;99.90
21019;DHT22;10667;51.056;3.732;2023-11-21T06:26:22;11.10;99.90
21019;DHT22;10667;51.056;3.732;2023-11-21T06:28:48;11.10;99.90
21019;DHT22;10667;51.056;3.732;2023-11-21T06:31:16;11.10;99.90
21019;DHT22;10667;51.056;3.732;2023-11-21T06:33:43;11.20;99.90
21019;DHT22;10667;51.056;3.732;2023-11-21T06:36:09;11.20;99.90
21019;DHT22;10667;51.056;3.732;2023-11-21T06:38:37;11.30;99.90
21019;DHT22;10667;51.056;3.732;2023-11-21T06:41:02;11.20;99.90
21019;DHT22;10667;51.056;3.732;2023-11-21T06:43:30;11.30;99.90
21019;DHT22;10667;51.056;3.732;2023-11-21T06:45:57;11.30;99.90
21019;DHT22;10667;51.056;3.732;2023-11-21T06:48:22;11.40;99.90
21019;DHT22;10667;51.056;3.732;2023-11-21T06:50:48;11.30;99.90
21019;DHT22;10667;51.056;3.732;2023-11-21T06:53:14;11.10;99.90
21019;DHT22;10667;51.056;3.732;2023-11-21T06:55:40;11.00;99.90
21019;DHT22;10667;51.056;3.732;2023-11-21T06:58:06;11.00;99.90
21019;DHT22;10667;51.056;3.732;2023-11-21T07:00:31;10.90;99.90
21019;DHT22;10667;51.056;3.732;2023-11-21T07:02:57;10.90;99.90
21019;DHT22;10667;51.056;3.732;2023-11-21T07:05:23;10.90;99.90
21019;DHT22;10667;51.056;3.732;2023-11-21T07:07:49;10.90;99.90
21019;DHT22;10667;51.056;3.732;2023-11-21T07:10:15;10.90;99.90
21019;DHT22;10667;51.056;3.732;2023-11-21T07:12:41;10.80;99.90
21019;DHT22;10667;51.056;3.732;2023-11-21T07:15:07;10.80;99.90
21019;DHT22;10667;51.056;3.732;2023-11-21T07:17:37;10.90;99.90
21019;DHT22;10667;51.056;3.732;2023-11-21T07:20:03;11.00;99.90
21019;DHT22;10667;51.056;3.732;2023-11-21T07:22:29;11.10;99.90
21019;DHT22;10667;51.056;3.732;2023-11-21T07:24:55;11.20;99.90
21019;DHT22;10667;51.056;3.732;2023-11-21T07:27:24;11.20;99.90
21019;DHT22;10667;51.056;3.732;2023-11-21T07:29:49;11.30;99.90
21019;DHT22;10667;51.056;3.732;2023-11-21T07:32:15;11.40;99.90
21019;DHT22;10667;51.056;3.732;2023-11-21T07:34:41;11.40;99.90
21019;DHT22;10667;51.056;3.732;2023-11-21T07:37:07;11.50;99.90
21019;DHT22;10667;51.056;3.732;2023-11-21T07:39:34;11.50;99.90
21019;DHT22;10667;51.056;3.732;2023-11-21T07:42:01;11.30;99.90
21019;DHT22;10667;51.056;3.732;2023-11-21T07:44:29;11.30;99.90
21019;DHT22;10667;51.056;3.732;2023-11-21T07:46:55;11.40;99.90
21019;DHT22;10667;51.056;3.732;2023-11-21T07:49:24;11.30;99.90
21019;DHT22;10667;51.056;3.732;2023-11-21T07:51:50;11.40;99.90
21019;DHT22;10667;51.056;3.732;2023-11-21T07:54:16;11.40;99.90
21019;DHT22;10667;51.056;3.732;2023-11-21T07:56:42;11.50;99.90
21019;DHT22;10667;51.056;3.732;2023-11-21T07:59:08;11.30;99.90
21019;DHT22;10667;51.056;3.732;2023-11-21T08:01:33;11.10;99.90
21019;DHT22;10667;51.056;3.732;2023-11-21T08:03:59;11.10;99.90
21019;DHT22;10667;51.056;3.732;2023-11-21T08:06:29;11.10;99.90
21019;DHT22;10667;51.056;3.732;2023-11-21T08:08:56;11.10;99.90
21019;DHT22;10667;51.056;3.732;2023-11-21T08:11:22;11.20;99.90
21019;DHT22;10667;51.056;3.732;2023-11-21T08:13:47;11.20;99.90
21019;DHT22;10667;51.056;3.732;2023-11-21T08:16:13;11.20;99.90
21019;DHT22;10667;51.056;3.732;2023-11-21T08:18:39;11.20;99.90
21019;DHT22;10667;51.056;3.732;2023-11-21T08:21:05;11.20;99.90
21019;DHT22;10667;51.056;3.732;2023-11-21T08:23:31;11.20;99.90
21019;DHT22;10667;51.056;3.732;2023-11-21T08:25:57;11.20;99.90
21019;DHT22;10667;51.056;3.732;2023-11-21T08:28:23;11.20;99.90
21019;DHT22;10667;51.056;3.732;2023-11-21T08:30:53;11.10;99.90
21019;DHT22;10667;51.056;3.732;2023-11-21T08:33:22;11.10;99.90
21019;DHT22;10667;51.056;3.732;2023-11-21T08:35:48;11.10;99.90
21019;DHT22;10667;51.056;3.732;2023-11-21T08:38:14;11.10;99.90
21019;DHT22;10667;51.056;3.732;2023-11-21T08:40:40;11.00;99.90
21019;DHT22;10667;51.056;3.732;2023-11-21T08:43:05;11.00;99.90
21019;DHT22;10667;51.056;3.732;2023-11-21T08:45:32;11.10;99.90
21019;DHT22;10667;51.056;3.732;2023-11-21T08:48:00;11.10;99.90
21019;DHT22;10667;51.056;3.732;2023-11-21T08:50:26;11.10;99.90
21019;DHT22;10667;51.056;3.732;2023-11-21T08:52:52;11.00;99.90
21019;DHT22;10667;51.056;3.732;2023-11-21T08:55:17;11.00;99.90
21019;DHT22;10667;51.056;3.732;2023-11-21T08:57:45;11.00;99.90
21019;DHT22;10667;51.056;3.732;2023-11-21T09:00:12;11.00;99.90
21019;DHT22;10667;51.056;3.732;2023-11-21T09:02:38;11.00;99.90
21019;DHT22;10667;51.056;3.732;2023-11-21T09:05:08;11.00;99.90
21019;DHT22;10667;51.056;3.732;2023-11-21T09:07:34;11.00;99.90
21019;DHT22;10667;51.056;3.732;2023-11-21T09:10:01;11.00;99.90
21019;DHT22;10667;51.056;3.732;2023-11-21T09:12:27;11.10;99.90
21019;DHT22;10667;51.056;3.732;2023-11-21T09:14:52;11.10;99.90
21019;DHT22;10667;51.056;3.732;2023-11-21T09:17:18;11.10;99.90
21019;DHT22;10667;51.056;3.732;2023-11-21T09:19:44;11.10;99.90
21019;DHT22;10667;51.056;3.732;2023-11-21T09:22:12;11.20;99.90
21019;DHT22;10667;51.056;3.732;2023-11-21T09:24:38;11.30;99.90
21019;DHT22;10667;51.056;3.732;2023-11-21T09:27:04;11.40;99.90
21019;DHT22;10667;51.056;3.732;2023-11-21T09:29:30;11.50;99.90
21019;DHT22;10667;51.056;3.732;2023-11-21T09:31:57;11.60;99.90
21019;DHT22;10667;51.056;3.732;2023-11-21T09:34:25;11.70;99.90
21019;DHT22;10667;51.056;3.732;2023-11-21T09:36:51;11.70;99.90
21019;DHT22;10667;51.056;3.732;2023-11-21T09:39:17;11.80;99.90
21019;DHT22;10667;51.056;3.732;2023-11-21T09:44:18;11.90;99.90
21019;DHT22;10667;51.056;3.732;2023-11-21T09:46:47;11.90;99.90
21019;DHT22;10667;51.056;3.732;2023-11-21T09:49:14;11.90;99.90
21019;DHT22;10667;51.056;3.732;2023-11-21T09:51:42;12.00;99.90
21019;DHT22;10667;51.056;3.732;2023-11-21T09:54:10;12.00;99.90
21019;DHT22;10667;51.056;3.732;2023-11-21T09:56:38;12.00;99.90
21019;DHT22;10667;51.056;3.732;2023-11-21T09:59:05;11.90;99.90
21019;DHT22;10667;51.056;3.732;2023-11-21T10:01:36;12.00;99.90
21019;DHT22;10667;51.056;3.732;2023-11-21T10:04:01;12.00;99.90
21019;DHT22;10667;51.056;3.732;2023-11-21T10:06:28;12.10;99.90
21019;DHT22;10667;51.056;3.732;2023-11-21T10:08:56;12.10;99.90
21019;DHT22;10667;51.056;3.732;2023-11-21T10:11:27;12.00;99.90
21019;DHT22;10667;51.056;3.732;2023-11-21T10:13:55;12.10;99.90
21019;DHT22;10667;51.056;3.732;2023-11-21T10:16:26;12.00;99.90
21019;DHT22;10667;51.056;3.732;2023-11-21T10:18:53;12.00;99.90
21019;DHT22;10667;51.056;3.732;2023-11-21T10:21:21;12.10;99.90
21019;DHT22;10667;51.056;3.732;2023-11-21T10:23:47;12.10;99.90
21019;DHT22;10667;51.056;3.732;2023-11-21T10:26:13;12.10;99.90
21019;DHT22;10667;51.056;3.732;2023-11-21T10:29:01;12.10;99.90
21019;DHT22;10667;51.056;3.732;2023-11-21T10:31:30;12.10;99.90
21019;DHT22;10667;51.056;3.732;2023-11-21T10:34:19;12.10;99.90
21019;DHT22;10667;51.056;3.732;2023-11-21T10:36:45;12.20;99.90
21019;DHT22;10667;51.056;3.732;2023-11-21T10:39:18;12.20;99.90
21019;DHT22;10667;51.056;3.732;2023-11-21T10:41:45;12.20;99.90
21019;DHT22;10667;51.056;3.732;2023-11-21T10:44:17;12.20;99.90
21019;DHT22;10667;51.056;3.732;2023-11-21T10:46:53;12.20;99.90
21019;DHT22;10667;51.056;3.732;2023-11-21T10:49:25;12.40;99.90
21019;DHT22;10667;51.056;3.732;2023-11-21T10:51:51;12.40;99.90
21019;DHT22;10667;51.056;3.732;2023-11-21T10:54:22;12.40;99.90
21019;DHT22;10667;51.056;3.732;2023-11-21T10:56:50;12.40;99.90
21019;DHT22;10667;51.056;3.732;2023-11-21T10:59:17;12.30;99.90
21019;DHT22;10667;51.056;3.732;2023-11-21T11:01:45;12.30;99.90
21019;DHT22;10667;51.056;3.732;2023-11-21T11:04:12;12.30;99.90
21019;DHT22;10667;51.056;3.732;2023-11-21T11:07:08;12.20;99.90
21019;DHT22;10667;51.056;3.732;2023-11-21T11:09:37;12.30;99.90
21019;DHT22;10667;51.056;3.732;2023-11-21T11:12:03;12.20;99.90
21019;DHT22;10667;51.056;3.732;2023-11-21T11:14:30;12.20;99.90
21019;DHT22;10667;51.056;3.732;2023-11-21T11:16:58;12.20;99.90
21019;DHT22;10667;51.056;3.732;2023-11-21T11:19:25;12.20;99.90
21019;DHT22;10667;51.056;3.732;2023-11-21T11:22:19;12.20;99.90
21019;DHT22;10667;51.056;3.732;2023-11-21T11:27:55;12.20;99.90
21019;DHT22;10667;51.056;3.732;2023-11-21T11:33:42;12.10;99.90
21019;DHT22;10667;51.056;3.732;2023-11-21T11:38:35;12.10;99.90
21019;DHT22;10667;51.056;3.732;2023-11-21T11:41:07;12.10;99.90
21019;DHT22;10667;51.056;3.732;2023-11-21T11:43:34;12.10;99.90
21019;DHT22;10667;51.056;3.732;2023-11-21T11:46:10;12.10;99.90
21019;DHT22;10667;51.056;3.732;2023-11-21T11:48:40;12.20;99.90
21019;DHT22;10667;51.056;3.732;2023-11-21T11:51:10;12.20;99.90
21019;DHT22;10667;51.056;3.732;2023-11-21T11:53:41;12.20;99.90
21019;DHT22;10667;51.056;3.732;2023-11-21T11:56:31;12.20;99.90
21019;DHT22;10667;51.056;3.732;2023-11-21T11:59:02;12.20;99.90
21019;DHT22;10667;51.056;3.732;2023-11-21T12:01:28;12.20;99.90
21019;DHT22;10667;51.056;3.732;2023-11-21T12:06:45;12.40;99.90
21019;DHT22;10667;51.056;3.732;2023-11-21T12:09:32;12.40;99.90
21019;DHT22;10667;51.056;3.732;2023-11-21T12:11:58;12.50;99.90
21019;DHT22;10667;51.056;3.732;2023-11-21T12:14:24;12.40;99.90
21019;DHT22;10667;51.056;3.732;2023-11-21T12:16:50;12.40;99.90
21019;DHT22;10667;51.056;3.732;2023-11-21T12:19:17;12.40;99.90
21019;DHT22;10667;51.056;3.732;2023-11-21T12:21:43;12.30;99.90
21019;DHT22;10667;51.056;3.732;2023-11-21T12:24:09;12.30;99.90
21019;DHT22;10667;51.056;3.732;2023-11-21T12:26:35;12.20;99.90
21019;DHT22;10667;51.056;3.732;2023-11-21T12:29:04;12.20;99.90
21019;DHT22;10667;51.056;3.732;2023-11-21T12:31:30;12.10;99.90
21019;DHT22;10667;51.056;3.732;2023-11-21T12:33:56;12.10;99.90
21019;DHT22;10667;51.056;3.732;2023-11-21T12:36:22;12.10;99.90
21019;DHT22;10667;51.056;3.732;2023-11-21T12:38:48;12.10;99.90
21019;DHT22;10667;51.056;3.732;2023-11-21T12:41:16;12.10;99.90
21019;DHT22;10667;51.056;3.732;2023-11-21T12:43:43;12.10;99.90
21019;DHT22;10667;51.056;3.732;2023-11-21T12:46:11;12.10;99.90
21019;DHT22;10667;51.056;3.732;2023-11-21T12:48:38;12.00;99.90
21019;DHT22;10667;51.056;3.732;2023-11-21T12:51:08;12.10;99.90
21019;DHT22;10667;51.056;3.732;2023-11-21T12:53:35;12.10;99.90
21019;DHT22;10667;51.056;3.732;2023-11-21T12:56:07;12.10;99.90
21019;DHT22;10667;51.056;3.732;2023-11-21T12:58:35;12.10;99.90
21019;DHT22;10667;51.056;3.732;2023-11-21T13:01:01;12.10;99.90
21019;DHT22;10667;51.056;3.732;2023-11-21T13:03:30;12.10;99.90
21019;DHT22;10667;51.056;3.732;2023-11-21T13:05:56;12.00;99.90
21019;DHT22;10667;51.056;3.732;2023-11-21T13:08:25;12.00;99.90
21019;DHT22;10667;51.056;3.732;2023-11-21T13:10:56;12.00;99.90
21019;DHT22;10667;51.056;3.732;2023-11-21T13:13:22;12.00;99.90
21019;DHT22;10667;51.056;3.732;2023-11-21T13:16:00;12.00;99.90
21019;DHT22;10667;51.056;3.732;2023-11-21T13:18:27;12.10;99.90
21019;DHT22;10667;51.056;3.732;2023-11-21T13:20:54;12.10;99.90
21019;DHT22;10667;51.056;3.732;2023-11-21T13:23:21;12.10;99.90
21019;DHT22;10667;51.056;3.732;2023-11-21T13:25:48;12.10;99.90
21019;DHT22;10667;51.056;3.732;2023-11-21T13:28:15;12.20;99.90
21019;DHT22;10667;51.056;3.732;2023-11-21T13:30:41;12.20;99.90
21019;DHT22;10667;51.056;3.732;2023-11-21T13:33:08;12.20;99.90
21019;DHT22;10667;51.056;3.732;2023-11-21T13:35:35;12.10;99.90
21019;DHT22;10667;51.056;3.732;2023-11-21T13:38:11;12.10;99.90
21019;DHT22;10667;51.056;3.732;2023-11-21T13:40:40;12.20;99.90
21019;DHT22;10667;51.056;3.732;2023-11-21T13:43:10;12.20;99.90
21019;DHT22;10667;51.056;3.732;2023-11-21T13:45:37;12.10;99.90
21019;DHT22;10667;51.056;3.732;2023-11-21T13:48:05;12.10;99.90
21019;DHT22;10667;51.056;3.732;2023-11-21T13:50:36;12.00;99.90
21019;DHT22;10667;51.056;3.732;2023-11-21T13:53:02;12.10;99.90
21019;DHT22;10667;51.056;3.732;2023-11-21T13:55:36;12.00;99.90
21019;DHT22;10667;51.056;3.732;2023-11-21T13:58:02;12.00;99.90
21019;DHT22;10667;51.056;3.732;2023-11-21T14:00:29;12.00;99.90
21019;DHT22;10667;51.056;3.732;2023-11-21T14:03:11;12.00;99.90
21019;DHT22;10667;51.056;3.732;2023-11-21T14:05:48;12.00;99.90
21019;DHT22;10667;51.056;3.732;2023-11-21T14:08:22;12.00;99.90
21019;DHT22;10667;51.056;3.732;2023-11-21T14:10:54;12.00;99.90
21019;DHT22;10667;51.056;3.732;2023-11-21T14:13:23;12.00;99.90
21019;DHT22;10667;51.056;3.732;2023-11-21T14:15:50;12.00;99.90
21019;DHT22;10667;51.056;3.732;2023-11-21T14:18:26;12.10;99.90
21019;DHT22;10667;51.056;3.732;2023-11-21T14:21:16;12.00;99.90
21019;DHT22;10667;51.056;3.732;2023-11-21T14:23:42;12.00;99.90
21019;DHT22;10667;51.056;3.732;2023-11-21T14:26:08;12.00;99.90
21019;DHT22;10667;51.056;3.732;2023-11-21T14:28:34;12.00;99.90
21019;DHT22;10667;51.056;3.732;2023-11-21T14:31:02;12.00;99.90
21019;DHT22;10667;51.056;3.732;2023-11-21T14:33:28;12.00;99.90
21019;DHT22;10667;51.056;3.732;2023-11-21T14:35:54;12.00;99.90
21019;DHT22;10667;51.056;3.732;2023-11-21T14:38:20;12.00;99.90
21019;DHT22;10667;51.056;3.732;2023-11-21T14:40:46;12.00;99.90
21019;DHT22;10667;51.056;3.732;2023-11-21T14:43:12;11.90;99.90
21019;DHT22;10667;51.056;3.732;2023-11-21T14:45:38;11.90;99.90
21019;DHT22;10667;51.056;3.732;2023-11-21T14:48:04;11.90;99.90
21019;DHT22;10667;51.056;3.732;2023-11-21T14:50:30;11.90;99.90
21019;DHT22;10667;51.056;3.732;2023-11-21T14:53:04;11.90;99.90
21019;DHT22;10667;51.056;3.732;2023-11-21T14:55:34;11.90;99.90
21019;DHT22;10667;51.056;3.732;2023-11-21T14:58:06;11.90;99.90
21019;DHT22;10667;51.056;3.732;2023-11-21T15:00:37;11.90;99.90
21019;DHT22;10667;51.056;3.732;2023-11-21T15:03:09;11.90;99.90
21019;DHT22;10667;51.056;3.732;2023-11-21T15:05:35;12.00;99.90
21019;DHT22;10667;51.056;3.732;2023-11-21T15:08:01;12.00;99.90
21019;DHT22;10667;51.056;3.732;2023-11-21T15:10:42;12.00;99.90
21019;DHT22;10667;51.056;3.732;2023-11-21T15:13:19;11.90;99.90
21019;DHT22;10667;51.056;3.732;2023-11-21T15:15:45;11.90;99.90
21019;DHT22;10667;51.056;3.732;2023-11-21T15:18:10;11.80;99.90
21019;DHT22;10667;51.056;3.732;2023-11-21T15:20:42;11.80;99.90
21019;DHT22;10667;51.056;3.732;2023-11-21T15:23:09;11.80;99.90
21019;DHT22;10667;51.056;3.732;2023-11-21T15:25:35;11.80;99.90
21019;DHT22;10667;51.056;3.732;2023-11-21T15:28:02;11.80;99.90
21019;DHT22;10667;51.056;3.732;2023-11-21T15:30:28;11.90;99.90
21019;DHT22;10667;51.056;3.732;2023-11-21T15:32:57;12.00;99.90
21019;DHT22;10667;51.056;3.732;2023-11-21T15:35:23;12.10;99.90
21019;DHT22;10667;51.056;3.732;2023-11-21T15:37:49;12.00;99.90
21019;DHT22;10667;51.056;3.732;2023-11-21T15:40:15;12.00;99.90
21019;DHT22;10667;51.056;3.732;2023-11-21T15:42:42;12.00;99.90
21019;DHT22;10667;51.056;3.732;2023-11-21T15:45:08;11.80;99.90